ADDS METAR Data INFO
IDs: Format: Raw Decoded Include TAF

Data at: 0922 UTC 13 Dec 2017

KDAN 130853Z AUTO 24006KT 10SM CLR M06/M11 A2988 RMK AO2 SLP115 T10561111 53013
KDAN 130753Z AUTO 29006KT 10SM CLR M04/M12 A2986 RMK AO2 SLP108 T10391122
KDAN 130653Z AUTO 31010G19KT 10SM CLR M03/M12 A2984 RMK AO2 SLP103 T10331122
KDAN 130553Z AUTO 30008KT 10SM BKN055 M03/M12 A2984 RMK AO2 SLP101 T10331122 10006 21033 51007
KDAN 130453Z AUTO 30011G24KT 10SM CLR M03/M13 A2984 RMK AO2 PK WND 30029/0406 SLP101 T10281133 401111028
KDAN 130353Z AUTO 30017G24KT 10SM FEW065 M02/M12 A2983 RMK AO2 PK WND 33028/0341 SLP099 T10221122
KDAN 130253Z AUTO 30010G26KT 10SM CLR M02/M12 A2982 RMK AO2 PK WND 31027/0220 SLP094 T10171117 51019
KDAN 130153Z AUTO 32015G24KT 10SM CLR M01/M10 A2980 RMK AO2 PK WND 33026/0130 SLP090 T10111100
KDAN 130053Z AUTO 29009G17KT 10SM CLR 00/M09 A2978 RMK AO2 SLP084 T00001089
KDAN 122353Z AUTO 30011G24KT 10SM FEW060 01/M08 A2976 RMK AO2 PK WND 32033/2258 SLP075 60000 T00061078 10094 20006 53041
KDAN 122253Z AUTO 31017G32KT 10SM BKN080 OVC100 03/M06 A2971 RMK AO2 PK WND 30032/2248 SLP060 T00281056
KDAN 122153Z AUTO 29014G18KT 10SM OVC060 06/M04 A2967 RMK AO2 RAB2056E04 SLP043 P0000 T00561044
KDAN 122053Z AUTO 32016G21KT 10SM SCT055 BKN070 BKN080 08/M02 A2963 RMK AO2 SLP030 T00781022 53002
KDAN 121953Z AUTO 29011G16KT 10SM BKN060 OVC075 08/M03 A2962 RMK AO2 SLP025 T00831028
KDAN 121853Z AUTO 30013G18KT 10SM OVC065 09/M02 A2962 RMK AO2 SLP026 T00891017
KDAN 121753Z AUTO 30010G25KT 10SM OVC055 09/M01 A2963 RMK AO2 SLP028 T00891011 10111 20000 56016
KDAN 121653Z AUTO 29016G22KT 10SM CLR 10/M01 A2963 RMK AO2 SLP027 T01001006
KDAN 121553Z AUTO 28005KT 10SM SCT110 08/02 A2966 RMK AO2 SLP041 T00780022
KDAN 121453Z AUTO 27005KT 10SM BKN110 04/01 A2967 RMK AO2 SLP046 T00390011 58009
KDAN 121353Z AUTO 28004KT 10SM CLR 01/00 A2969 RMK AO2 SLP052 T00110000
KDAN 121253Z AUTO 00000KT 10SM CLR 00/M01 A2970 RMK AO2 SLP056 T00001006
KDAN 121153Z AUTO 21004KT 10SM CLR 01/M01 A2970 RMK AO2 SLP056 T00061006 10022 21006 56011
KDAN 121053Z AUTO 20005KT 10SM CLR 02/00 A2971 RMK AO2 SLP057 T00170000
KDAN 120953Z AUTO 23003KT 10SM CLR 01/M01 A2973 RMK AO2 SLP065 T00061011
KDAN 120853Z AUTO 21004KT 10SM CLR 01/M01 A2974 RMK AO2 SLP065 T00111011 56033
KDAN 120753Z AUTO 21003KT 10SM CLR 01/M01 A2977 RMK AO2 SLP075 T00061011
KDAN 120653Z AUTO 00000KT 10SM CLR 01/M01 A2980 RMK AO2 SLP086 T00111011
KDAN 120553Z AUTO 26005KT 10SM CLR 01/M02 A2983 RMK AO2 SLP099 T00111022 10050 20000 56027
KDAN 120453Z AUTO 18004KT 10SM CLR 04/M01 A2986 RMK AO2 SLP106 T00441011 400941050
KDAN 120353Z AUTO 19005KT 10SM CLR 04/M01 A2988 RMK AO2 SLP116 T00441011
KDAN 120253Z AUTO 19004KT 10SM CLR 03/M02 A2991 RMK AO2 SLP127 T00331017 58015
KDAN 120153Z AUTO 20005KT 10SM CLR 03/M01 A2994 RMK AO2 SLP136 T00281011
KDAN 120053Z AUTO 19003KT 10SM CLR 00/M02 A2995 RMK AO2 SLP144 T00001017
KDAN 112353Z AUTO 00000KT 10SM CLR 02/M01 A2996 RMK AO2 SLP144 T00171011 10094 20011 56012
KDAN 112253Z AUTO 17003KT 10SM CLR 02/M01 A2997 RMK AO2 SLP148 T00221011
KDAN 112153Z AUTO 20004KT 10SM CLR 07/M01 A2998 RMK AO2 SLP151 T00721011